Country
Station

 

Weather  for  Boise, Boise Air Terminal  -  United States    United States

  
7 °C (45 °F)
    
 
 

Current METAR for Boise, Boise Air Terminal is :

KBOI 181453Z 11006KT 5SM HZ CLR 07/01 A3024 RMK AO2 SLP241 T00670011 53012

 

This is a report for Boise, Boise Air Terminal - United States.
 
The report was made 5 minutes ago, at 14:53 UTC .
The wind was blowing at a speed of 3.1 meters per second (6.9 miles per hour) from east/southeast (110°).
 
The temperature was 7 °C (45 °F), with a dew-point at 1 °C (34 °F).
The atmospheric pressure was 1024 hPa (30.24 inHg).
The relative humidity was 65.6%.
 
The sky was clear.
 
The overall visibility was 8.0 kilometers (5.0 miles).
 
Currently haze.

 
 
 
 

Country :   A   B   C   D   E   F   G   H   I   J   K   L   M   N   O   P   Q   R   S   T   U   V   W   Y   Z

 

Site Info  |  Disclaimer  |  Credits  |  Privacy
Contact us  |  Add to favorites
© 2013-2018 METARs - All rights reserved